Terminal Aerodrome Forecast
Issued by NWS Sterling, VA

Current Version | Previous Version | Graphics & Text | Print | Product List | Glossary On
Versions: 1 2 3 4 5 6 7 8 9 10 11 12 13 14 15 16 17
000
FTUS41 KLWX 261700
TAFMRB
TAF
KMRB 261737Z 2618/2718 36007KT 1SM -SN OVC008
     FM262100 33006KT 5SM -SN BKN008 OVC015
     FM262300 31004KT P6SM SCT008 OVC025
     FM270600 VRB03KT 5SM BR OVC035
     FM271300 VRB03KT P6SM BKN035
     FM271500 33008KT P6SM BKN035=

USA.gov is the U.S. government's official web portal to all federal, state and local government web resources and services.